Waterloo Wellington, Ontario

7:51 PM EDT on September 02, 2014 (GMT -0400)
University Downs | Change Station
CLOSE
Current Station
Personal Weather Station
Location: Waterloo, ONTARIO
Elevation: 1076 ft
Nearby Weather Stations

Elev 1076 ft 43.49 °N, 80.49 °W | Updated 13 minutes ago

Scattered Clouds
Scattered Clouds
68.0 °F
Feels Like 68.0 °F
N
3.7
Wind Variable Wind from ESE

Tomorrow is forecast to be nearly the same temperature as today.

Today
High -- | Low -- °F
--% Chance of Precip.
Yesterday
High -- | Low -- °F
Precip. -- in
6:46 AM 7:55 PM
First Quarter, 56% visible
Pressure 29.83 in
Visibility 9.0 miles
Clouds Scattered Clouds 14000 ft
Dew Point 63 °F
Humidity 85%
Rainfall 1.28 in
Snow Depth Not available.
UV 1 out of 12
Pollen Not available.
Air Quality Not available.
Flu Activity Not available.
METAR CYKF 022200Z AUTO 29013KT 9SM SCT140 22/18 A2984 RMK SLP102 DENSITY ALT 2100FT

More Conditions Fewer Conditions

Pressure 29.83 in
Visibility 9.0 miles
Clouds Scattered Clouds 14000 ft
Dew Point 63 °F
Humidity 85%
Rainfall 1.28 in
Snow Depth Not available.
UV 1 out of 12
Pollen Not available.
Air Quality Not available.
Flu Activity Not available.
METAR CYKF 022200Z AUTO 29013KT 9SM SCT140 22/18 A2984 RMK SLP102 DENSITY ALT 2100FT

More Conditions Fewer Conditions

10-Day Weather Forecast

Almanac

Astronomy

Sep. 02, 2014 Rise Set
Actual Time 6:46 AM EDT 7:55 PM EDT
Civil Twilight 6:17 AM EDT 8:24 PM EDT
Nautical Twilight 5:41 AM EDT 8:59 PM EDT
Astronomical Twilight 5:04 AM EDT 9:36 PM EDT
Moon 2:41 PM EDT No Moon Set
Length of Visible Light 14h 07m
Length of Day
13h 08m
Tomorrow will be 2m 52s shorter.
First Quarter, 56% of the Moon is Illuminated
Today
First Quarter
Sep 8
Full
Sep 15
Last Quarter
Sep 24
New
Oct 1
First Quarter

Today's Extremes

Country Highs Country Lows

Community

WunderPhotos

Upload Photos

1,749,799 photos uploaded!

Nearby

Snow Depth

Not available.

Earthquake Activity

City Distance Mag. Time & Date
No recent earthquake activity has been reported nearby.
Minimum magnitude displayed is 2.5.

Coastal Water Temperatures

Place Temperature
No Stations Reporting

Nearby Weather Stations